createdAt,value
2022-11-05T00:01:10.953Z,0.50
2022-11-05T00:03:38.991Z,0.60
2022-11-05T00:06:10.688Z,0.60
2022-11-05T00:08:40.351Z,0.50
2022-11-05T00:11:16.762Z,0.50
2022-11-05T00:13:46.172Z,0.60
2022-11-05T00:16:14.149Z,0.50
2022-11-05T00:18:42.221Z,0.50
2022-11-05T00:21:10.297Z,0.90
2022-11-05T00:23:38.476Z,0.50
2022-11-05T00:26:09.112Z,0.50
2022-11-05T00:28:38.177Z,0.40
2022-11-05T00:31:11.210Z,0.50
2022-11-05T00:33:40.536Z,0.40
2022-11-05T00:36:11.401Z,0.30
2022-11-05T00:38:39.624Z,0.40
2022-11-05T00:41:07.674Z,0.40
2022-11-05T00:43:35.977Z,0.60
2022-11-05T00:46:04.064Z,0.50
2022-11-05T00:48:32.337Z,0.40
2022-11-05T00:51:00.614Z,0.50
2022-11-05T00:53:29.206Z,0.20
2022-11-05T00:55:57.176Z,0.50
2022-11-05T00:58:25.252Z,0.30
2022-11-05T01:00:56.245Z,0.40
2022-11-05T01:03:36.344Z,0.40
2022-11-05T01:06:13.569Z,0.40
2022-11-05T01:08:44.369Z,0.50
2022-11-05T01:11:16.179Z,0.40
2022-11-05T01:13:44.615Z,0.50
2022-11-05T01:16:13.249Z,0.50
2022-11-05T01:18:41.381Z,0.50
2022-11-05T01:21:14.060Z,0.40
2022-11-05T01:23:42.237Z,0.60
2022-11-05T01:26:10.454Z,0.70
2022-11-05T01:28:38.851Z,0.60
2022-11-05T01:31:07.183Z,0.40
2022-11-05T01:33:35.361Z,0.70
2022-11-05T01:36:05.486Z,0.50
2022-11-05T01:38:33.560Z,0.80
2022-11-05T01:41:01.639Z,0.50
2022-11-05T01:43:56.188Z,0.60
2022-11-05T01:46:40.895Z,0.70
2022-11-05T01:49:32.700Z,0.40
2022-11-05T01:52:04.688Z,0.40
2022-11-05T01:54:34.886Z,0.40
2022-11-05T01:57:08.167Z,0.40
2022-11-05T01:59:48.584Z,0.50
2022-11-05T02:02:18.044Z,0.50
2022-11-05T02:04:55.103Z,0.70
2022-11-05T02:07:25.609Z,0.40
2022-11-05T02:10:02.321Z,0.90
2022-11-05T02:12:33.042Z,0.50
2022-11-05T02:15:01.032Z,0.30
2022-11-05T02:17:47.733Z,0.40
2022-11-05T02:20:34.126Z,0.40
2022-11-05T02:23:08.177Z,0.40
2022-11-05T02:26:12.746Z,0.40
2022-11-05T02:28:51.466Z,0.40
2022-11-05T02:31:41.651Z,0.40
2022-11-05T02:34:32.444Z,0.50
2022-11-05T02:37:14.732Z,0.70
2022-11-05T02:40:15.144Z,0.60
2022-11-05T02:42:54.386Z,0.40
2022-11-05T02:45:46.718Z,0.40
2022-11-05T02:48:22.209Z,0.50
2022-11-05T02:51:10.025Z,0.30
2022-11-05T02:54:03.245Z,0.30
2022-11-05T02:56:36.119Z,0.30
2022-11-05T02:59:04.299Z,0.60
2022-11-05T03:01:32.686Z,0.40
2022-11-05T03:04:04.039Z,0.40
2022-11-05T03:06:54.011Z,0.50
2022-11-05T03:09:28.610Z,0.50
2022-11-05T03:11:56.620Z,0.40
2022-11-05T03:14:24.688Z,0.50
2022-11-05T03:17:10.145Z,0.40
2022-11-05T03:19:38.117Z,0.40
2022-11-05T03:22:14.100Z,0.50
2022-11-05T03:24:49.149Z,0.40
2022-11-05T03:27:21.728Z,0.40
2022-11-05T03:29:54.808Z,0.40
2022-11-05T03:32:24.726Z,0.40
2022-11-05T03:35:00.148Z,0.50
2022-11-05T03:37:34.247Z,0.50
2022-11-05T03:40:06.689Z,0.30
2022-11-05T03:42:38.992Z,0.40
2022-11-05T03:45:25.914Z,0.50
2022-11-05T03:47:58.134Z,0.50
2022-11-05T03:51:01.465Z,0.30
2022-11-05T03:53:36.870Z,0.30
2022-11-05T03:56:18.192Z,0.50
2022-11-05T03:58:48.439Z,0.50
2022-11-05T04:01:16.711Z,0.30
2022-11-05T04:03:44.972Z,0.30
2022-11-05T04:06:14.018Z,0.30
2022-11-05T04:08:42.248Z,0.20
2022-11-05T04:11:11.702Z,0.30
2022-11-05T04:13:40.141Z,0.40
2022-11-05T04:16:08.215Z,0.30
2022-11-05T04:18:36.600Z,0.30
2022-11-05T04:21:06.218Z,0.40
2022-11-05T04:23:34.286Z,0.50
2022-11-05T04:26:02.399Z,0.50
2022-11-05T04:28:30.850Z,0.30
2022-11-05T04:30:59.034Z,0.30
2022-11-05T04:33:27.111Z,0.20
2022-11-05T04:35:55.286Z,0.30
2022-11-05T04:38:23.869Z,0.30
2022-11-05T04:40:52.046Z,0.40
2022-11-05T04:43:20.339Z,0.40
2022-11-05T04:45:48.815Z,0.40
2022-11-05T04:48:17.095Z,0.40
2022-11-05T04:50:45.270Z,0.40
2022-11-05T04:53:13.681Z,0.40
2022-11-05T04:55:41.936Z,0.50
2022-11-05T04:58:10.421Z,0.40
2022-11-05T05:00:38.526Z,0.50
2022-11-05T05:03:06.881Z,0.50
2022-11-05T05:05:35.535Z,0.50
2022-11-05T05:08:07.017Z,0.40
2022-11-05T05:10:35.097Z,0.40
2022-11-05T05:13:03.281Z,0.30
2022-11-05T05:15:31.458Z,0.30
2022-11-05T05:17:59.633Z,0.50
2022-11-05T05:20:28.117Z,0.50
2022-11-05T05:22:56.403Z,0.30
2022-11-05T05:25:24.577Z,0.40
2022-11-05T05:27:52.864Z,0.40
2022-11-05T05:30:21.139Z,0.40
2022-11-05T05:32:49.322Z,0.30
2022-11-05T05:35:17.596Z,0.60
2022-11-05T05:37:45.677Z,0.40
2022-11-05T05:40:13.853Z,0.30
2022-11-05T05:42:43.584Z,0.30
2022-11-05T05:45:12.461Z,0.40
2022-11-05T05:47:40.535Z,0.40
2022-11-05T05:50:08.714Z,0.30
2022-11-05T05:52:36.897Z,0.50
2022-11-05T05:55:05.595Z,0.30
2022-11-05T05:57:34.682Z,0.30
2022-11-05T06:00:03.987Z,0.50
2022-11-05T06:02:32.189Z,0.30
2022-11-05T06:05:00.311Z,0.60
2022-11-05T06:07:31.777Z,0.40
2022-11-05T06:10:02.943Z,0.50
2022-11-05T06:12:31.134Z,0.50
2022-11-05T06:14:59.300Z,0.30
2022-11-05T06:17:27.499Z,0.40
2022-11-05T06:19:55.757Z,0.60
2022-11-05T06:22:23.936Z,0.50
2022-11-05T06:24:52.013Z,0.40
2022-11-05T06:27:20.393Z,0.30
2022-11-05T06:29:48.394Z,0.50
2022-11-05T06:32:16.649Z,0.30
2022-11-05T06:34:44.732Z,0.40
2022-11-05T06:37:12.817Z,0.40
2022-11-05T06:39:41.183Z,0.20
2022-11-05T06:42:18.399Z,0.40
2022-11-05T06:44:47.472Z,0.60
2022-11-05T06:47:15.648Z,0.40
2022-11-05T06:49:43.821Z,0.30
2022-11-05T06:52:13.330Z,0.40
2022-11-05T06:54:42.227Z,0.50
2022-11-05T06:57:12.261Z,0.40
2022-11-05T06:59:40.861Z,0.40
2022-11-05T07:02:12.523Z,0.30
2022-11-05T07:04:40.771Z,0.40
2022-11-05T07:07:08.949Z,0.40
2022-11-05T07:09:37.541Z,0.50
2022-11-05T07:12:06.136Z,0.30
2022-11-05T07:14:34.209Z,0.40
2022-11-05T07:17:02.589Z,0.40
2022-11-05T07:19:30.902Z,0.30
2022-11-05T07:21:59.054Z,0.50
2022-11-05T07:24:27.223Z,0.40
2022-11-05T07:26:55.401Z,0.40
2022-11-05T07:29:23.683Z,0.40
2022-11-05T07:31:51.763Z,0.40
2022-11-05T07:34:20.145Z,0.60
2022-11-05T07:36:48.450Z,0.20
2022-11-05T07:39:16.708Z,0.30
2022-11-05T07:41:44.882Z,0.30
2022-11-05T07:44:13.170Z,0.30
2022-11-05T07:46:42.057Z,0.50
2022-11-05T07:49:10.133Z,1.40
2022-11-05T07:51:38.316Z,1.60
2022-11-05T07:54:06.490Z,1.90
2022-11-05T07:56:34.770Z,2.30
2022-11-05T07:59:03.051Z,1.80
2022-11-05T08:01:31.353Z,1.60
2022-11-05T08:03:59.718Z,2.20
2022-11-05T08:06:27.889Z,1.70
2022-11-05T08:08:56.071Z,1.10
2022-11-05T08:11:24.159Z,0.90
2022-11-05T08:13:52.323Z,0.70
2022-11-05T08:16:20.500Z,0.60
2022-11-05T08:18:48.684Z,0.60
2022-11-05T08:21:16.861Z,1.00
2022-11-05T08:23:45.039Z,1.40
2022-11-05T08:26:13.420Z,1.00
2022-11-05T08:28:41.599Z,0.90
2022-11-05T08:31:09.781Z,0.90
2022-11-05T08:33:37.961Z,0.90
2022-11-05T08:36:06.448Z,0.90
2022-11-05T08:38:34.618Z,1.00
2022-11-05T08:41:02.701Z,0.80
2022-11-05T08:43:30.873Z,0.60
2022-11-05T08:46:01.200Z,0.90
2022-11-05T08:48:29.627Z,0.70
2022-11-05T08:51:00.688Z,0.60
2022-11-05T08:53:28.806Z,0.60
2022-11-05T08:56:00.696Z,1.10
2022-11-05T08:58:28.854Z,0.80
2022-11-05T09:01:01.782Z,1.00
2022-11-05T09:03:32.880Z,1.40
2022-11-05T09:06:01.059Z,1.50
2022-11-05T09:08:29.234Z,3.20
2022-11-05T09:10:57.926Z,3.50
2022-11-05T09:13:26.835Z,2.90
2022-11-05T09:15:55.510Z,1.80
2022-11-05T09:18:23.689Z,1.30
2022-11-05T09:20:52.875Z,1.40
2022-11-05T09:23:20.967Z,1.00
2022-11-05T09:25:49.145Z,0.80
2022-11-05T09:28:20.060Z,0.70
2022-11-05T09:30:50.788Z,0.80
2022-11-05T09:33:22.171Z,0.90
2022-11-05T09:35:51.683Z,0.60
2022-11-05T09:38:19.978Z,0.80
2022-11-05T09:41:00.449Z,0.60
2022-11-05T09:43:37.606Z,0.90
2022-11-05T09:48:42.554Z,0.70
2022-11-05T09:51:19.269Z,0.60
2022-11-05T09:53:51.702Z,0.50
2022-11-05T09:56:26.742Z,0.60
2022-11-05T09:59:22.984Z,0.50
2022-11-05T10:01:56.716Z,0.50
2022-11-05T10:04:25.473Z,0.60
2022-11-05T10:06:58.545Z,0.60
2022-11-05T10:09:43.709Z,0.50
2022-11-05T10:12:39.281Z,0.50
2022-11-05T10:15:41.229Z,0.50
2022-11-05T10:18:23.302Z,0.50
2022-11-05T10:20:51.643Z,0.60
2022-11-05T10:23:22.110Z,0.40
2022-11-05T10:26:09.099Z,0.30
2022-11-05T10:28:39.742Z,0.50
2022-11-05T10:31:15.174Z,0.60
2022-11-05T10:34:03.154Z,0.40
2022-11-05T10:36:36.962Z,0.80
2022-11-05T10:39:17.688Z,0.40
2022-11-05T10:42:04.557Z,0.50
2022-11-05T10:44:52.370Z,0.30
2022-11-05T10:47:52.595Z,0.50
2022-11-05T10:50:25.219Z,0.50
2022-11-05T10:53:13.575Z,0.50
2022-11-05T10:55:46.531Z,0.50
2022-11-05T10:58:17.635Z,0.80
2022-11-05T11:00:52.325Z,0.40
2022-11-05T11:03:34.779Z,0.40
2022-11-05T11:06:12.776Z,0.50
2022-11-05T11:08:45.437Z,0.60
2022-11-05T11:11:30.216Z,0.50
2022-11-05T11:13:59.925Z,0.50
2022-11-05T11:16:32.863Z,0.40
2022-11-05T11:19:02.593Z,0.40
2022-11-05T11:21:32.345Z,0.50
2022-11-05T11:24:05.850Z,0.40
2022-11-05T11:26:37.232Z,0.70
2022-11-05T11:29:05.275Z,0.50
2022-11-05T11:31:38.530Z,0.40
2022-11-05T11:34:20.760Z,0.40
2022-11-05T11:36:56.803Z,0.30
2022-11-05T11:39:29.403Z,0.50
2022-11-05T11:42:01.722Z,0.50
2022-11-05T11:44:34.820Z,0.30
2022-11-05T11:47:13.378Z,0.40
2022-11-05T11:49:58.033Z,0.60
2022-11-05T11:52:37.094Z,0.40
2022-11-05T11:55:11.287Z,0.50
2022-11-05T11:57:53.984Z,0.40
2022-11-05T12:00:24.723Z,0.50
2022-11-05T12:03:11.742Z,0.50
2022-11-05T12:06:01.817Z,0.40
2022-11-05T12:08:30.084Z,0.40
2022-11-05T12:11:00.819Z,0.30
2022-11-05T12:13:54.058Z,0.40
2022-11-05T12:16:25.215Z,0.40
2022-11-05T12:19:03.225Z,0.40
2022-11-05T12:21:58.429Z,0.30
2022-11-05T12:25:02.921Z,0.40
2022-11-05T12:27:40.501Z,0.50
2022-11-05T12:30:14.972Z,0.50
2022-11-05T12:33:07.722Z,0.40
2022-11-05T12:36:07.675Z,0.60
2022-11-05T12:38:52.739Z,0.40
2022-11-05T12:41:49.782Z,0.50
2022-11-05T12:44:23.891Z,0.50
2022-11-05T12:47:01.175Z,0.70
2022-11-05T12:49:44.395Z,0.70
2022-11-05T12:52:52.591Z,0.40
2022-11-05T12:55:24.551Z,0.70
2022-11-05T12:57:55.188Z,0.50
2022-11-05T13:00:26.086Z,0.30
2022-11-05T13:03:06.584Z,0.80
2022-11-05T13:05:44.074Z,0.30
2022-11-05T13:08:29.145Z,0.50
2022-11-05T13:11:19.111Z,0.30
2022-11-05T13:14:11.875Z,0.50
2022-11-05T13:17:02.497Z,0.50
2022-11-05T13:19:57.575Z,0.50
2022-11-05T13:23:01.423Z,0.40
2022-11-05T13:25:34.773Z,0.70
2022-11-05T13:28:25.421Z,0.40
2022-11-05T13:30:58.024Z,0.60
2022-11-05T13:33:47.457Z,0.40
2022-11-05T13:36:20.882Z,0.40
2022-11-05T13:39:21.794Z,0.40
2022-11-05T13:42:05.305Z,0.60
2022-11-05T13:45:11.244Z,0.60
2022-11-05T13:47:54.985Z,0.40
2022-11-05T13:50:42.905Z,0.30
2022-11-05T13:53:48.640Z,0.50
2022-11-05T13:56:53.658Z,0.50
2022-11-05T13:59:49.982Z,0.40
2022-11-05T14:02:22.807Z,0.50
2022-11-05T14:05:00.785Z,0.50
2022-11-05T14:07:33.443Z,0.80
2022-11-05T14:10:21.585Z,0.60
2022-11-05T14:12:53.346Z,0.50
2022-11-05T14:15:25.217Z,0.60
2022-11-05T14:18:34.958Z,0.40
2022-11-05T14:21:05.482Z,0.40
2022-11-05T14:23:40.395Z,0.30
2022-11-05T14:26:11.844Z,0.70
2022-11-05T14:28:46.623Z,0.50
2022-11-05T14:31:47.405Z,0.60
2022-11-05T14:34:20.859Z,0.50
2022-11-05T14:37:10.763Z,0.50
2022-11-05T14:39:40.479Z,0.30
2022-11-05T14:42:22.795Z,0.40
2022-11-05T14:45:30.052Z,0.40
2022-11-05T14:48:05.040Z,0.40
2022-11-05T14:50:41.808Z,0.40
2022-11-05T14:53:12.147Z,0.40
2022-11-05T14:55:43.640Z,0.50
2022-11-05T14:58:18.057Z,0.20
2022-11-05T15:00:48.012Z,0.30
2022-11-05T15:03:47.062Z,0.40
2022-11-05T15:06:37.145Z,0.30
2022-11-05T15:09:40.723Z,0.40
2022-11-05T15:12:20.059Z,0.40
2022-11-05T15:15:21.210Z,0.40
2022-11-05T15:17:58.985Z,0.50
2022-11-05T15:23:19.627Z,0.50
2022-11-05T15:26:30.770Z,0.40
2022-11-05T15:29:01.114Z,0.40
2022-11-05T15:31:34.698Z,0.60
2022-11-05T15:34:27.525Z,0.40
2022-11-05T15:37:03.073Z,0.30
2022-11-05T15:39:44.144Z,0.40
2022-11-05T15:42:15.294Z,0.30
2022-11-05T15:45:03.730Z,0.40
2022-11-05T15:47:35.281Z,0.40
2022-11-05T15:50:14.690Z,0.50
2022-11-05T15:52:52.471Z,0.50
2022-11-05T15:55:25.827Z,0.40
2022-11-05T15:57:56.647Z,0.30
2022-11-05T16:00:31.195Z,0.40
2022-11-05T16:03:03.440Z,0.60
2022-11-05T16:05:35.773Z,0.40
2022-11-05T16:08:04.200Z,0.40
2022-11-05T16:10:36.983Z,0.60
2022-11-05T16:13:50.595Z,0.50
2022-11-05T16:16:18.782Z,0.30
2022-11-05T16:18:47.422Z,0.50
2022-11-05T16:21:20.526Z,0.50
2022-11-05T16:23:48.814Z,0.60
2022-11-05T16:29:35.645Z,0.40
2022-11-05T16:32:31.145Z,0.50
2022-11-05T16:35:02.947Z,0.80
2022-11-05T16:37:40.301Z,0.50
2022-11-05T16:40:18.185Z,0.50
2022-11-05T16:42:46.985Z,0.60
2022-11-05T16:45:17.178Z,0.50
2022-11-05T16:47:46.207Z,0.40
2022-11-05T16:50:27.408Z,0.50
2022-11-05T16:52:55.663Z,0.50
2022-11-05T16:55:24.047Z,0.60
2022-11-05T16:57:54.669Z,0.60
2022-11-05T17:00:24.634Z,0.50
2022-11-05T17:02:53.590Z,0.50
2022-11-05T17:05:27.607Z,0.40
2022-11-05T17:07:56.306Z,0.50
2022-11-05T17:10:26.116Z,0.70
2022-11-05T17:12:54.603Z,0.90
2022-11-05T17:15:31.111Z,0.50
2022-11-05T17:17:59.985Z,0.60
2022-11-05T17:20:34.963Z,0.60
2022-11-05T17:23:07.687Z,0.70
2022-11-05T17:25:36.274Z,0.40
2022-11-05T17:28:05.067Z,0.70
2022-11-05T17:30:33.558Z,0.70
2022-11-05T17:33:01.717Z,0.70
2022-11-05T17:35:30.205Z,0.50
2022-11-05T17:37:58.383Z,0.60
2022-11-05T17:40:26.457Z,0.50
2022-11-05T17:42:54.729Z,0.40
2022-11-05T17:45:23.120Z,0.50
2022-11-05T17:47:51.479Z,0.80
2022-11-05T17:50:20.294Z,0.70
2022-11-05T17:52:48.560Z,0.60
2022-11-05T17:55:16.848Z,0.60
2022-11-05T17:57:50.501Z,0.70
2022-11-05T18:00:23.790Z,0.60
2022-11-05T18:02:53.757Z,1.40
2022-11-05T18:05:23.092Z,1.50
2022-11-05T18:07:51.645Z,1.30
2022-11-05T18:10:20.458Z,1.00
2022-11-05T18:12:49.110Z,0.80
2022-11-05T18:15:18.145Z,0.60
2022-11-05T18:17:46.636Z,0.70
2022-11-05T18:20:19.220Z,0.60
2022-11-05T18:22:52.105Z,0.90
2022-11-05T18:25:20.273Z,0.80
2022-11-05T18:27:48.348Z,1.00
2022-11-05T18:30:16.885Z,1.50
2022-11-05T18:32:45.372Z,0.80
2022-11-05T18:35:13.707Z,1.30
2022-11-05T18:37:42.209Z,1.50
2022-11-05T18:40:10.980Z,1.80
2022-11-05T18:42:39.985Z,2.00
2022-11-05T18:45:09.808Z,2.40
2022-11-05T18:47:38.187Z,2.60
2022-11-05T18:50:07.815Z,2.90
2022-11-05T18:52:36.274Z,2.80
2022-11-05T18:55:04.859Z,3.00
2022-11-05T18:57:34.227Z,3.40
2022-11-05T19:00:02.404Z,2.90
2022-11-05T19:02:30.793Z,2.60
2022-11-05T19:07:47.445Z,3.20
2022-11-05T19:10:16.034Z,3.00
2022-11-05T19:12:44.212Z,3.30
2022-11-05T19:15:12.497Z,6.50
2022-11-05T19:17:40.656Z,6.50
2022-11-05T19:20:09.666Z,4.30
2022-11-05T19:22:37.886Z,3.30
2022-11-05T19:25:06.741Z,2.40
2022-11-05T19:27:35.958Z,2.50
2022-11-05T19:30:06.578Z,2.30
2022-11-05T19:32:34.653Z,1.80
2022-11-05T19:35:02.852Z,1.50
2022-11-05T19:37:31.394Z,1.60
2022-11-05T19:39:59.704Z,1.30
2022-11-05T19:42:27.883Z,1.50
2022-11-05T19:44:56.261Z,1.20
2022-11-05T19:47:24.448Z,1.30
2022-11-05T19:49:52.540Z,1.00
2022-11-05T19:52:21.414Z,1.40
2022-11-05T19:54:49.462Z,1.40
2022-11-05T19:57:17.664Z,1.60
2022-11-05T19:59:45.740Z,1.40
2022-11-05T20:02:16.485Z,0.90
2022-11-05T20:04:44.757Z,0.80
2022-11-05T20:07:13.042Z,0.90
2022-11-05T20:09:41.533Z,0.90
2022-11-05T20:12:09.827Z,1.00
2022-11-05T20:14:38.289Z,1.30
2022-11-05T20:17:06.365Z,1.80
2022-11-05T20:19:34.543Z,0.90
2022-11-05T20:22:02.723Z,1.00
2022-11-05T20:24:31.001Z,1.00
2022-11-05T20:26:59.079Z,1.00
2022-11-05T20:29:33.811Z,0.90
2022-11-05T20:32:04.542Z,1.10
2022-11-05T20:34:34.065Z,1.00
2022-11-05T20:37:02.439Z,1.00
2022-11-05T20:39:30.823Z,1.00
2022-11-05T20:41:58.994Z,1.00
2022-11-05T20:44:27.173Z,1.20
2022-11-05T20:46:55.919Z,1.40
2022-11-05T20:49:25.844Z,1.80
2022-11-05T20:51:54.578Z,1.20
2022-11-05T20:54:23.268Z,1.40
2022-11-05T20:56:51.650Z,1.90
2022-11-05T20:59:19.793Z,2.50
2022-11-05T21:01:50.195Z,1.70
2022-11-05T21:04:18.802Z,1.30
2022-11-05T21:06:46.818Z,1.30
2022-11-05T21:09:14.994Z,1.50
2022-11-05T21:11:43.507Z,1.90
2022-11-05T21:14:11.658Z,1.80
2022-11-05T21:16:39.836Z,1.80
2022-11-05T21:19:08.323Z,1.30
2022-11-05T21:21:40.781Z,1.40
2022-11-05T21:24:09.607Z,1.60
2022-11-05T21:26:37.606Z,1.60
2022-11-05T21:29:05.847Z,1.30
2022-11-05T21:31:37.709Z,1.30
2022-11-05T21:34:05.893Z,1.40
2022-11-05T21:36:34.062Z,1.00
2022-11-05T21:39:02.353Z,1.40
2022-11-05T21:41:30.678Z,1.60
2022-11-05T21:43:59.110Z,1.50
2022-11-05T21:46:27.662Z,2.30
2022-11-05T21:48:55.876Z,2.30
2022-11-05T21:51:23.952Z,2.70
2022-11-05T21:53:52.334Z,2.40
2022-11-05T21:56:24.123Z,2.80
2022-11-05T21:58:52.278Z,2.50
2022-11-05T22:01:20.665Z,2.20
2022-11-05T22:03:48.762Z,2.20
2022-11-05T22:06:17.013Z,2.00
2022-11-05T22:08:45.212Z,2.20
2022-11-05T22:11:13.471Z,2.30
2022-11-05T22:13:41.652Z,1.80
2022-11-05T22:16:09.833Z,2.00
2022-11-05T22:18:38.104Z,2.10
2022-11-05T22:21:06.595Z,1.80
2022-11-05T22:23:34.985Z,1.80
2022-11-05T22:26:03.067Z,1.70
2022-11-05T22:28:31.233Z,1.70
2022-11-05T22:30:59.716Z,1.60
2022-11-05T22:33:27.812Z,2.00
2022-11-05T22:35:55.980Z,1.70
2022-11-05T22:38:24.521Z,2.10
2022-11-05T22:40:52.845Z,2.00
2022-11-05T22:43:21.020Z,1.70
2022-11-05T22:45:49.506Z,1.60
2022-11-05T22:48:17.583Z,1.80
2022-11-05T22:50:45.761Z,2.30
2022-11-05T22:53:14.268Z,1.80
2022-11-05T22:55:42.320Z,2.00
2022-11-05T22:58:11.123Z,1.90
2022-11-05T23:00:40.121Z,2.30
2022-11-05T23:03:11.083Z,2.20
2022-11-05T23:05:39.336Z,2.30
2022-11-05T23:08:07.627Z,1.80
2022-11-05T23:10:38.654Z,2.00
2022-11-05T23:13:06.708Z,2.10
2022-11-05T23:15:35.016Z,2.00
2022-11-05T23:18:03.120Z,2.10
2022-11-05T23:20:31.470Z,1.90
2022-11-05T23:22:59.754Z,2.30
2022-11-05T23:25:28.037Z,1.90
2022-11-05T23:27:56.311Z,1.70
2022-11-05T23:30:27.021Z,1.70
2022-11-05T23:32:56.197Z,2.10
2022-11-05T23:35:24.736Z,2.10
2022-11-05T23:37:52.810Z,1.80
2022-11-05T23:40:28.154Z,1.90
2022-11-05T23:42:57.605Z,1.70
2022-11-05T23:45:26.249Z,2.70
2022-11-05T23:47:54.633Z,1.80
2022-11-05T23:50:23.015Z,2.10
2022-11-05T23:52:53.581Z,1.90
2022-11-05T23:55:25.410Z,1.90
2022-11-05T23:57:53.520Z,1.80
